createdAt,value
2023-03-28T00:01:41.846Z,13.85
2023-03-28T00:04:11.566Z,13.82
2023-03-28T00:06:38.975Z,13.83
2023-03-28T00:09:05.879Z,13.82
2023-03-28T00:11:32.519Z,13.78
2023-03-28T00:14:01.299Z,13.77
2023-03-28T00:16:32.426Z,13.76
2023-03-28T00:19:11.762Z,13.73
2023-03-28T00:21:41.506Z,13.74
2023-03-28T00:24:13.968Z,13.71
2023-03-28T00:26:42.230Z,13.68
2023-03-28T00:29:15.788Z,13.66
2023-03-28T00:31:42.760Z,13.62
2023-03-28T00:34:09.619Z,13.62
2023-03-28T00:36:38.997Z,13.59
2023-03-28T00:39:06.701Z,13.58
2023-03-28T00:41:39.868Z,13.57
2023-03-28T00:44:38.848Z,13.58
2023-03-28T00:47:09.285Z,13.53
2023-03-28T00:49:36.471Z,13.54
2023-03-28T00:52:04.778Z,13.52
2023-03-28T00:54:39.522Z,13.50
2023-03-28T00:57:09.081Z,13.49
2023-03-28T00:59:38.514Z,13.46
2023-03-28T01:02:05.841Z,13.44
2023-03-28T01:04:46.532Z,13.43
2023-03-28T01:07:13.971Z,13.42
2023-03-28T01:09:40.903Z,13.41
2023-03-28T01:12:10.034Z,13.42
2023-03-28T01:14:39.308Z,13.38
2023-03-28T01:17:08.847Z,13.37
2023-03-28T01:20:02.557Z,13.34
2023-03-28T01:23:11.777Z,13.36
2023-03-28T01:26:11.218Z,13.32
2023-03-28T01:29:09.214Z,13.34
2023-03-28T01:31:56.410Z,13.31
2023-03-28T01:34:51.053Z,13.28
2023-03-28T01:37:30.101Z,13.27
2023-03-28T01:40:13.615Z,13.24
2023-03-28T01:42:44.554Z,13.25
2023-03-28T01:45:22.621Z,13.21
2023-03-28T01:47:55.356Z,13.20
2023-03-28T01:50:29.760Z,13.19
2023-03-28T01:53:03.566Z,13.18
2023-03-28T01:56:07.897Z,13.20
2023-03-28T01:58:44.870Z,13.19
2023-03-28T02:01:24.703Z,13.13
2023-03-28T02:03:56.362Z,13.12
2023-03-28T02:06:39.850Z,13.07
2023-03-28T02:09:14.634Z,13.09
2023-03-28T02:12:14.676Z,13.08
2023-03-28T02:15:05.131Z,13.04
2023-03-28T02:18:00.549Z,13.08
2023-03-28T02:20:55.452Z,13.03
2023-03-28T02:26:41.713Z,13.00
2023-03-28T02:29:28.543Z,12.99
2023-03-28T02:34:41.385Z,12.97
2023-03-28T02:37:22.906Z,12.93
2023-03-28T02:40:00.751Z,12.92
2023-03-28T02:43:01.299Z,12.90
2023-03-28T02:45:53.922Z,12.89
2023-03-28T02:54:31.422Z,12.82
2023-03-28T02:57:37.031Z,12.85
2023-03-28T03:00:15.875Z,12.80
2023-03-28T03:02:44.337Z,12.87
2023-03-28T03:05:11.862Z,12.87
2023-03-28T03:07:38.851Z,12.81
2023-03-28T03:10:07.570Z,12.77
2023-03-28T03:12:36.946Z,12.76
2023-03-28T03:15:05.300Z,12.75
2023-03-28T03:17:53.871Z,12.72
2023-03-28T03:20:26.728Z,12.72
2023-03-28T03:22:55.409Z,12.72
2023-03-28T03:25:22.408Z,12.72
2023-03-28T03:27:56.879Z,12.70
2023-03-28T03:30:23.873Z,12.66
2023-03-28T03:33:10.658Z,12.62
2023-03-28T03:35:38.541Z,12.65
2023-03-28T03:38:06.816Z,12.62
2023-03-28T03:40:34.061Z,12.62
2023-03-28T03:43:01.482Z,12.60
2023-03-28T03:45:28.701Z,12.65
2023-03-28T03:47:56.717Z,12.80
2023-03-28T03:50:24.034Z,12.78
2023-03-28T03:52:50.862Z,12.62
2023-03-28T03:55:23.216Z,12.55
2023-03-28T03:57:50.160Z,12.54
2023-03-28T04:00:17.266Z,12.51
2023-03-28T04:02:47.300Z,12.51
2023-03-28T04:05:20.014Z,12.49
2023-03-28T04:08:01.748Z,12.47
2023-03-28T04:10:34.070Z,12.46
2023-03-28T04:13:01.692Z,12.50
2023-03-28T04:15:28.953Z,12.42
2023-03-28T04:18:09.795Z,12.38
2023-03-28T04:20:41.828Z,12.41
2023-03-28T04:23:09.671Z,12.39
2023-03-28T04:25:41.712Z,12.38
2023-03-28T04:28:16.843Z,12.37
2023-03-28T04:30:58.246Z,12.40
2023-03-28T04:33:45.330Z,12.39
2023-03-28T04:36:18.775Z,12.36
2023-03-28T04:38:58.315Z,12.32
2023-03-28T04:41:46.252Z,12.28
2023-03-28T04:44:29.852Z,12.29
2023-03-28T04:47:02.324Z,12.30
2023-03-28T04:49:29.641Z,12.27
2023-03-28T04:51:56.605Z,12.29
2023-03-28T04:54:23.613Z,12.26
2023-03-28T04:57:04.784Z,12.21
2023-03-28T04:59:46.886Z,12.21
2023-03-28T05:02:22.303Z,12.20
2023-03-28T05:05:08.300Z,12.21
2023-03-28T05:07:35.173Z,12.16
2023-03-28T05:10:02.188Z,12.19
2023-03-28T05:12:34.721Z,12.17
2023-03-28T05:15:05.017Z,12.18
2023-03-28T05:17:33.990Z,12.12
2023-03-28T05:20:11.181Z,12.14
2023-03-28T05:22:49.024Z,12.12
2023-03-28T05:25:16.041Z,12.10
2023-03-28T05:27:42.971Z,12.08
2023-03-28T05:30:10.705Z,12.08
2023-03-28T05:32:38.765Z,12.05
2023-03-28T05:35:11.599Z,12.08
2023-03-28T05:37:41.216Z,12.08
2023-03-28T05:40:11.320Z,12.06
2023-03-28T05:42:40.656Z,12.04
2023-03-28T05:45:13.900Z,12.04
2023-03-28T05:48:16.126Z,12.04
2023-03-28T05:50:45.033Z,12.04
2023-03-28T05:53:12.065Z,12.12
2023-03-28T05:55:39.422Z,12.03
2023-03-28T05:58:06.455Z,12.02
2023-03-28T06:00:38.906Z,12.02
2023-03-28T06:03:07.938Z,11.94
2023-03-28T06:05:38.637Z,11.92
2023-03-28T06:08:15.592Z,11.97
2023-03-28T06:10:43.290Z,11.95
2023-03-28T06:13:19.939Z,11.97
2023-03-28T06:15:48.119Z,12.11
2023-03-28T06:18:16.234Z,12.23
2023-03-28T06:20:45.792Z,12.35
2023-03-28T06:23:12.733Z,12.41
2023-03-28T06:25:39.485Z,12.48
2023-03-28T06:28:07.043Z,12.37
2023-03-28T06:30:47.214Z,12.31
2023-03-28T06:33:14.110Z,12.27
2023-03-28T06:35:42.683Z,12.37
2023-03-28T06:38:09.468Z,12.45
2023-03-28T06:40:37.343Z,12.49
2023-03-28T06:43:04.035Z,12.61
2023-03-28T06:45:41.188Z,12.71
2023-03-28T06:48:12.171Z,12.75
2023-03-28T06:51:03.696Z,12.83
2023-03-28T06:53:31.036Z,12.91
2023-03-28T06:55:59.683Z,12.95
2023-03-28T06:58:27.076Z,13.05
2023-03-28T07:01:03.484Z,13.13
2023-03-28T07:03:36.474Z,13.20
2023-03-28T07:06:06.857Z,13.32
2023-03-28T07:08:34.470Z,13.38
2023-03-28T07:11:01.526Z,13.47
2023-03-28T07:13:31.778Z,13.57
2023-03-28T07:16:12.117Z,13.69
2023-03-28T07:18:39.155Z,13.74
2023-03-28T07:21:09.836Z,13.84
2023-03-28T07:23:36.957Z,13.86
2023-03-28T07:26:03.663Z,13.93
2023-03-28T07:28:31.001Z,13.99
2023-03-28T07:30:58.033Z,14.03
2023-03-28T07:33:34.213Z,14.13
2023-03-28T07:36:15.670Z,14.22
2023-03-28T07:38:48.408Z,14.19
2023-03-28T07:41:17.228Z,14.26
2023-03-28T07:43:44.218Z,14.29
2023-03-28T07:46:14.463Z,14.38
2023-03-28T07:48:42.814Z,14.36
2023-03-28T07:51:10.638Z,14.42
2023-03-28T07:53:38.415Z,14.45
2023-03-28T07:56:12.203Z,14.45
2023-03-28T07:58:57.477Z,14.50
2023-03-28T08:01:25.021Z,14.64
2023-03-28T08:03:56.815Z,14.75
2023-03-28T08:06:34.256Z,14.72
2023-03-28T08:09:02.761Z,14.70
2023-03-28T08:11:35.482Z,14.70
2023-03-28T08:14:03.787Z,14.67
2023-03-28T08:16:31.660Z,14.65
2023-03-28T08:19:10.081Z,14.65
2023-03-28T08:21:47.323Z,14.62
2023-03-28T08:24:19.514Z,14.65
2023-03-28T08:26:58.555Z,14.70
2023-03-28T08:29:25.487Z,14.66
2023-03-28T08:31:52.508Z,14.62
2023-03-28T08:34:19.361Z,14.61
2023-03-28T08:36:47.429Z,14.59
2023-03-28T08:39:27.204Z,14.63
2023-03-28T08:42:20.341Z,14.67
2023-03-28T08:45:08.851Z,14.66
2023-03-28T08:48:05.359Z,14.62
2023-03-28T08:50:45.214Z,14.64
2023-03-28T08:53:24.312Z,14.72
2023-03-28T08:55:53.548Z,14.79
2023-03-28T08:58:23.579Z,14.84
2023-03-28T09:00:52.095Z,14.78
2023-03-28T09:03:21.842Z,14.73
2023-03-28T09:05:57.122Z,14.70
2023-03-28T09:08:32.745Z,14.78
2023-03-28T09:11:14.201Z,14.78
2023-03-28T09:13:49.988Z,14.74
2023-03-28T09:16:44.576Z,14.78
2023-03-28T09:19:37.057Z,14.75
2023-03-28T09:22:47.081Z,14.83
2023-03-28T09:25:32.278Z,14.83
2023-03-28T09:28:13.185Z,14.81
2023-03-28T09:30:48.562Z,14.84
2023-03-28T09:33:21.391Z,14.85
2023-03-28T09:35:50.427Z,14.89
2023-03-28T09:38:40.036Z,14.91
2023-03-28T09:41:16.590Z,14.94
2023-03-28T09:43:53.263Z,15.00
2023-03-28T09:46:57.561Z,15.03
2023-03-28T09:49:35.158Z,15.09
2023-03-28T09:52:24.626Z,15.16
2023-03-28T09:54:52.470Z,15.20
2023-03-28T09:57:21.766Z,15.25
2023-03-28T09:59:58.682Z,15.28
2023-03-28T10:02:32.607Z,15.30
2023-03-28T10:05:33.307Z,15.34
2023-03-28T10:08:22.533Z,15.34
2023-03-28T10:11:19.835Z,15.38
2023-03-28T10:13:49.957Z,15.42
2023-03-28T10:16:37.037Z,15.32
2023-03-28T10:19:33.428Z,15.36
2023-03-28T10:22:26.426Z,15.34
2023-03-28T10:24:55.344Z,15.41
2023-03-28T10:27:27.806Z,15.40
2023-03-28T10:29:58.668Z,15.33
2023-03-28T10:32:31.677Z,15.33
2023-03-28T10:35:30.309Z,15.37
2023-03-28T10:38:16.514Z,15.32
2023-03-28T10:41:11.649Z,15.36
2023-03-28T10:43:57.126Z,15.41
2023-03-28T10:46:44.419Z,15.47
2023-03-28T10:49:21.019Z,15.41
2023-03-28T10:51:57.096Z,15.39
2023-03-28T10:54:50.684Z,15.45
2023-03-28T10:57:46.796Z,15.40
2023-03-28T11:00:37.047Z,15.41
2023-03-28T11:03:35.002Z,15.48
2023-03-28T11:06:15.341Z,15.49
2023-03-28T11:47:31.522Z,15.68
2023-03-28T11:50:30.978Z,15.73
2023-03-28T11:53:12.716Z,15.72
2023-03-28T11:56:07.025Z,15.74
2023-03-28T12:01:47.816Z,15.76
2023-03-28T12:04:22.471Z,15.76
2023-03-28T12:07:03.268Z,15.75
2023-03-28T12:09:56.321Z,15.73
2023-03-28T12:12:38.730Z,15.76
2023-03-28T12:15:14.505Z,15.77
2023-03-28T12:17:59.670Z,15.80
2023-03-28T12:20:33.942Z,15.79
2023-03-28T12:23:24.090Z,15.83
2023-03-28T12:26:21.479Z,15.85
2023-03-28T12:28:53.849Z,15.86
2023-03-28T12:31:57.535Z,15.87
2023-03-28T12:34:44.182Z,15.87
2023-03-28T12:37:28.797Z,15.85
2023-03-28T12:40:36.521Z,15.89
2023-03-28T12:43:04.815Z,15.91
2023-03-28T12:45:37.260Z,15.91
2023-03-28T12:48:14.018Z,15.95
2023-03-28T12:50:52.711Z,15.96
2023-03-28T12:53:21.915Z,15.98
2023-03-28T12:55:50.464Z,16.04
2023-03-28T12:58:34.313Z,16.04
2023-03-28T13:01:43.013Z,16.02
2023-03-28T13:11:14.859Z,16.13
2023-03-28T13:13:50.691Z,16.15
2023-03-28T13:16:42.900Z,16.17
2023-03-28T13:19:12.092Z,16.23
2023-03-28T13:21:55.190Z,16.25
2023-03-28T13:24:24.688Z,16.31
2023-03-28T13:26:55.403Z,16.31
2023-03-28T13:29:46.202Z,16.36
2023-03-28T13:32:18.657Z,16.35
2023-03-28T13:35:06.299Z,16.40
2023-03-28T13:37:47.381Z,16.47
2023-03-28T13:40:51.373Z,16.47
2023-03-28T13:43:56.107Z,16.46
2023-03-28T13:46:32.118Z,16.48
2023-03-28T13:49:06.836Z,16.47
2023-03-28T13:51:46.426Z,16.46
2023-03-28T13:54:13.687Z,16.44
2023-03-28T13:56:44.678Z,16.45
2023-03-28T13:59:16.082Z,16.43
2023-03-28T14:01:53.702Z,16.42
2023-03-28T14:04:26.491Z,16.42
2023-03-28T14:06:54.458Z,16.41
2023-03-28T14:09:27.692Z,16.39
2023-03-28T14:11:57.957Z,16.36
2023-03-28T14:14:45.911Z,16.34
2023-03-28T14:17:33.958Z,16.34
2023-03-28T14:20:05.351Z,16.32
2023-03-28T14:22:49.393Z,16.30
2023-03-28T14:25:24.805Z,16.30
2023-03-28T14:27:54.990Z,16.28
2023-03-28T14:30:26.643Z,16.28
2023-03-28T14:33:14.800Z,16.30
2023-03-28T14:35:43.126Z,16.28
2023-03-28T14:38:16.863Z,16.29
2023-03-28T14:40:45.881Z,16.27
2023-03-28T14:43:13.735Z,16.23
2023-03-28T14:45:43.474Z,16.28
2023-03-28T14:48:17.331Z,16.27
2023-03-28T14:50:46.044Z,16.25
2023-03-28T14:53:19.844Z,16.24
2023-03-28T14:55:51.090Z,16.22
2023-03-28T14:58:19.170Z,16.18
2023-03-28T15:00:52.922Z,16.18
2023-03-28T15:03:24.120Z,16.20
2023-03-28T15:05:54.540Z,16.25
2023-03-28T15:08:30.911Z,16.20
2023-03-28T15:11:03.695Z,16.19
2023-03-28T15:13:35.813Z,16.14
2023-03-28T15:16:05.589Z,16.16
2023-03-28T15:18:43.804Z,16.20
2023-03-28T15:21:11.700Z,16.21
2023-03-28T15:23:49.204Z,16.16
2023-03-28T15:26:25.479Z,16.13
2023-03-28T15:28:55.118Z,16.10
2023-03-28T15:31:22.516Z,16.11
2023-03-28T15:33:52.100Z,16.13
2023-03-28T15:36:22.475Z,16.14
2023-03-28T15:38:51.725Z,16.12
2023-03-28T15:41:28.885Z,16.10
2023-03-28T15:43:55.567Z,16.13
2023-03-28T15:46:30.423Z,16.13
2023-03-28T15:49:00.348Z,16.13
2023-03-28T15:51:28.325Z,16.14
2023-03-28T15:53:56.446Z,16.16
2023-03-28T15:56:41.126Z,16.13
2023-03-28T15:59:18.119Z,16.13
2023-03-28T16:01:45.021Z,16.12
2023-03-28T16:04:21.220Z,16.14
2023-03-28T16:06:48.920Z,16.26
2023-03-28T16:09:22.785Z,16.34
2023-03-28T16:12:00.121Z,16.49
2023-03-28T16:14:46.779Z,16.66
2023-03-28T16:17:29.117Z,16.78
2023-03-28T16:20:21.571Z,16.78
2023-03-28T16:22:49.071Z,16.45
2023-03-28T16:25:15.913Z,16.36
2023-03-28T16:27:42.870Z,16.33
2023-03-28T16:30:28.877Z,16.29
2023-03-28T16:32:56.193Z,16.29
2023-03-28T16:35:23.241Z,16.32
2023-03-28T16:37:49.886Z,16.28
2023-03-28T16:40:16.789Z,16.33
2023-03-28T16:42:43.718Z,16.34
2023-03-28T16:45:14.281Z,16.32
2023-03-28T16:47:42.092Z,16.36
2023-03-28T16:50:10.018Z,16.35
2023-03-28T16:52:40.433Z,16.34
2023-03-28T16:55:08.715Z,16.40
2023-03-28T16:57:37.019Z,16.44
2023-03-28T17:00:05.588Z,16.42
2023-03-28T17:02:32.407Z,16.43
2023-03-28T17:04:59.182Z,16.43
2023-03-28T17:07:25.948Z,16.49
2023-03-28T17:09:52.782Z,16.48
2023-03-28T17:12:21.229Z,16.49
2023-03-28T17:14:48.213Z,16.50
2023-03-28T17:17:15.771Z,16.52
2023-03-28T17:19:43.215Z,16.55
2023-03-28T17:22:10.148Z,16.48
2023-03-28T17:24:37.079Z,16.49
2023-03-28T17:27:04.176Z,16.48
2023-03-28T17:29:31.452Z,16.47
2023-03-28T17:31:58.363Z,16.47
2023-03-28T17:34:25.433Z,16.48
2023-03-28T17:36:53.486Z,16.43
2023-03-28T17:39:20.589Z,16.49
2023-03-28T17:41:47.554Z,16.47
2023-03-28T17:44:14.511Z,16.49
2023-03-28T17:46:41.523Z,16.42
2023-03-28T17:49:08.526Z,16.47
2023-03-28T17:51:35.524Z,16.44
2023-03-28T17:54:04.415Z,16.43
2023-03-28T17:56:31.173Z,16.40
2023-03-28T17:58:59.760Z,16.36
2023-03-28T18:01:26.477Z,16.32
2023-03-28T18:03:53.545Z,16.32
2023-03-28T18:06:41.192Z,16.30
2023-03-28T18:09:08.062Z,16.30
2023-03-28T18:11:35.985Z,16.26
2023-03-28T18:14:03.221Z,16.27
2023-03-28T18:16:30.213Z,16.23
2023-03-28T18:18:57.525Z,16.18
2023-03-28T18:21:26.393Z,16.18
2023-03-28T18:23:53.365Z,16.20
2023-03-28T18:26:20.259Z,16.13
2023-03-28T18:28:46.975Z,16.11
2023-03-28T18:31:17.490Z,16.09
2023-03-28T18:33:44.879Z,16.16
2023-03-28T18:36:12.945Z,16.18
2023-03-28T18:38:42.896Z,16.21
2023-03-28T18:41:11.025Z,16.28
2023-03-28T18:43:39.437Z,16.27
2023-03-28T18:46:15.360Z,16.26
2023-03-28T18:48:42.647Z,16.25
2023-03-28T18:51:09.448Z,16.29
2023-03-28T18:53:39.456Z,16.32
2023-03-28T18:56:07.528Z,16.27
2023-03-28T18:58:37.459Z,16.31
2023-03-28T19:01:05.942Z,16.25
2023-03-28T19:03:40.365Z,16.26
2023-03-28T19:06:09.450Z,16.26
2023-03-28T19:08:36.480Z,16.26
2023-03-28T19:11:14.858Z,16.18
2023-03-28T19:13:42.531Z,16.17
2023-03-28T19:16:16.995Z,16.06
2023-03-28T19:18:46.888Z,16.05
2023-03-28T19:21:14.865Z,15.94
2023-03-28T19:23:41.830Z,15.87
2023-03-28T19:26:11.742Z,15.84
2023-03-28T19:28:39.179Z,15.81
2023-03-28T19:31:08.191Z,15.74
2023-03-28T19:33:36.394Z,15.90
2023-03-28T19:36:05.759Z,15.80
2023-03-28T19:38:35.372Z,15.71
2023-03-28T19:41:09.233Z,15.65
2023-03-28T19:43:38.504Z,15.61
2023-03-28T19:46:07.750Z,15.58
2023-03-28T19:48:35.986Z,15.57
2023-03-28T19:51:03.440Z,15.53
2023-03-28T19:53:30.284Z,15.51
2023-03-28T19:55:59.280Z,15.49
2023-03-28T19:58:27.096Z,15.48
2023-03-28T20:00:57.145Z,15.46
2023-03-28T20:03:24.500Z,15.44
2023-03-28T20:05:51.711Z,15.41
2023-03-28T20:08:19.082Z,15.38
2023-03-28T20:10:48.930Z,15.37
2023-03-28T20:13:17.126Z,15.36
2023-03-28T20:15:45.803Z,15.33
2023-03-28T20:18:14.671Z,15.28
2023-03-28T20:20:42.096Z,15.27
2023-03-28T20:23:09.787Z,15.24
2023-03-28T20:25:36.707Z,15.22
2023-03-28T20:28:04.366Z,15.19
2023-03-28T20:30:32.274Z,15.17
2023-03-28T20:32:59.524Z,15.14
2023-03-28T20:35:27.430Z,15.13
2023-03-28T20:37:54.500Z,15.11
2023-03-28T20:40:23.859Z,15.10
2023-03-28T20:42:52.514Z,15.06
2023-03-28T20:45:22.437Z,15.07
2023-03-28T20:47:56.707Z,15.06
2023-03-28T20:50:34.026Z,15.03
2023-03-28T20:53:03.257Z,15.01
2023-03-28T20:55:32.157Z,15.02
2023-03-28T20:57:58.961Z,14.98
2023-03-28T21:00:33.754Z,14.97
2023-03-28T21:03:00.822Z,14.95
2023-03-28T21:05:28.795Z,14.92
2023-03-28T21:07:56.618Z,14.89
2023-03-28T21:10:23.559Z,14.86
2023-03-28T21:12:50.941Z,14.83
2023-03-28T21:15:18.163Z,14.81
2023-03-28T21:17:48.969Z,14.83
2023-03-28T21:20:15.859Z,14.80
2023-03-28T21:22:42.583Z,14.76
2023-03-28T21:25:10.628Z,14.77
2023-03-28T21:27:37.568Z,14.74
2023-03-28T21:30:08.018Z,14.70
2023-03-28T21:32:35.841Z,14.68
2023-03-28T21:35:04.105Z,14.66
2023-03-28T21:37:31.420Z,14.66
2023-03-28T21:39:58.206Z,14.65
2023-03-28T21:42:25.529Z,14.65
2023-03-28T21:44:52.265Z,14.63
2023-03-28T21:47:18.963Z,14.61
2023-03-28T21:49:46.084Z,14.60
2023-03-28T21:52:13.117Z,14.57
2023-03-28T21:54:39.975Z,14.55
2023-03-28T21:57:06.792Z,14.56
2023-03-28T21:59:33.532Z,14.53
2023-03-28T22:02:00.649Z,14.52
2023-03-28T22:04:28.531Z,14.50
2023-03-28T22:06:55.685Z,14.50
2023-03-28T22:09:22.556Z,14.49
2023-03-28T22:11:49.447Z,14.47
2023-03-28T22:14:16.194Z,14.44
2023-03-28T22:16:42.869Z,14.46
2023-03-28T22:19:09.852Z,14.44
2023-03-28T22:21:37.509Z,14.43
2023-03-28T22:24:07.054Z,14.43
2023-03-28T22:26:33.932Z,14.39
2023-03-28T22:29:00.801Z,14.38
2023-03-28T22:31:28.268Z,14.38
2023-03-28T22:33:55.028Z,14.36
2023-03-28T22:36:21.917Z,14.35
2023-03-28T22:38:48.731Z,14.35
2023-03-28T22:41:15.754Z,14.34
2023-03-28T22:43:42.809Z,14.33
2023-03-28T22:46:12.648Z,14.32
2023-03-28T22:48:39.623Z,14.32
2023-03-28T22:51:11.736Z,14.29
2023-03-28T22:53:39.740Z,14.29
2023-03-28T22:56:07.542Z,14.26
2023-03-28T22:58:34.416Z,14.25
2023-03-28T23:01:01.581Z,14.23
2023-03-28T23:03:28.543Z,14.23
2023-03-28T23:05:55.408Z,14.23
2023-03-28T23:08:22.381Z,14.21
2023-03-28T23:10:49.424Z,14.19
2023-03-28T23:13:16.526Z,14.19
2023-03-28T23:15:43.830Z,14.18
2023-03-28T23:18:11.009Z,14.18
2023-03-28T23:20:38.211Z,14.17
2023-03-28T23:23:05.012Z,14.16
2023-03-28T23:25:33.111Z,14.16
2023-03-28T23:27:59.983Z,14.14
2023-03-28T23:30:27.202Z,14.13
2023-03-28T23:32:53.921Z,14.12
2023-03-28T23:35:20.863Z,14.12
2023-03-28T23:37:47.695Z,14.12
2023-03-28T23:40:15.234Z,14.09
2023-03-28T23:42:44.708Z,14.10
2023-03-28T23:45:14.681Z,14.11
2023-03-28T23:47:42.829Z,14.07
2023-03-28T23:50:10.624Z,14.07
2023-03-28T23:52:37.441Z,14.06
2023-03-28T23:55:04.685Z,14.05
2023-03-28T23:57:31.336Z,14.04
2023-03-28T23:59:58.114Z,14.04
